Aérodrome :
LOGIN :

S'inscrire | Disclaimer

   EN    FR    IT 

 










Légende :    VFR   VFR Marginal   IFR   IFR Intensif   IFR Très Intensif
Visi : 
Plafond : 
>= 8 km
>= 3000ft
5 à 8 km
1000 à 3000 ft
1500m à 5 km
500 à 1000 ft
800 à 1500m
200 à 500 ft
< 800m
< 200 ft
Symboles :   Orages  Brouillard  Fortes neiges  Fortes précipitations  Vent > 20 kt
SIGMETs :   Divers  Orages  Givrage  Turbulence  Onde Orograph.  Cendres Volcan.






- Altitude de l'aérodrome : 382 ft
- Code IATA : CAI


HECA - Cairo Int.

DERNIER METAR :
  • 011500Z 32006KT 6000 SCT025 SCT030 23/07 Q1013 NOSIG

METARs EXPIRÉS :
  • 011430Z 25007KT 6000 SCT025 SCT030 24/07 Q1013 NOSIG
  • 011400Z 32002KT 6000 SCT025 SCT030 24/07 Q1013 NOSIG
  • 011330Z 27007KT 6000 SCT025 SCT030 23/06 Q1014 NOSIG
  • 011300Z 25004KT 6000 SCT025 SCT030 24/08 Q1014 NOSIG
  • 011230Z 24005KT 6000 SCT025 SCT030 23/07 Q1014 NOSIG

TAF TAF HECA
Valide du 01 à 12h jusqu'au 02 à 18h UTC


011100Z 0112/0218 32007KT 9999 SCT025
PROB40 0112/0118 4000 HZ NSC
TEMPO 0200/0209 VRB02KT 4000 BR NSC



MET'MAP, la Météo Aéronautique d'un coup d'oeil ! - Copyright ORBIFLY Décembre 2007 - Disclaimer

ORBIFLY MET'MAP TEAM :

Programmation & Développement : Alexandra Zaïnal
Sur une idée originale de : Baudouin d'Aumeries
Assistance à la programmation : Marc-Olivier Méhu
Soutien technique & logistique : Manuel Goepfert

Contact : metmap@orbifly.com




SOURCES & CREDITS :

   NOAA